Time;durP1;ratioP1;P1;durP2;ratioP2;P2;SDS_P1;SDS_P2;PMS_P1;PMS_P2;Temp;Humidity;BMP_temperature;BMP_pressure;BME280_temperature;BME280_humidity;BME280_pressure;Samples;Min_cycle;Max_cycle;Signal;HPM_P1;HPM_P2
2021/05/23 00:01:39;;;;;;;1999.90;999.90;;;10.90;99.90;;;;;;5074761;28;20654;-65
2021/05/23 00:04:04;;;;;;;1999.90;999.90;;;10.90;99.90;;;;;;5074864;28;20171;-65
2021/05/23 00:06:30;;;;;;;1999.90;999.90;;;10.80;99.90;;;;;;5074809;28;20192;-65
2021/05/23 00:08:56;;;;;;;1999.90;999.90;;;10.80;99.90;;;;;;5075286;28;20272;-66
2021/05/23 00:11:21;;;;;;;1999.90;999.90;;;10.80;99.90;;;;;;5075069;28;20170;-64
2021/05/23 00:13:49;;;;;;;1999.90;999.90;;;10.70;99.90;;;;;;5074698;28;20639;-64
2021/05/23 00:16:17;;;;;;;1999.90;999.90;;;10.70;99.90;;;;;;5074501;28;20169;-64
2021/05/23 00:18:47;;;;;;;1999.90;999.90;;;10.70;99.90;;;;;;5074502;28;20420;-64
2021/05/23 00:21:15;;;;;;;1999.90;999.90;;;10.60;99.90;;;;;;5074581;28;20393;-64
2021/05/23 00:23:41;;;;;;;1999.90;999.90;;;10.60;99.90;;;;;;5074727;28;20892;-66
2021/05/23 00:26:07;;;;;;;1999.90;999.90;;;10.60;99.90;;;;;;5074363;28;20412;-66
2021/05/23 00:28:33;;;;;;;1999.90;999.90;;;10.50;99.90;;;;;;5074411;28;20189;-65
2021/05/23 00:31:03;;;;;;;1999.90;999.90;;;10.60;99.90;;;;;;5074325;28;20168;-65
2021/05/23 00:33:28;;;;;;;1999.90;999.90;;;10.60;99.90;;;;;;5074226;28;20408;-66
2021/05/23 00:35:54;;;;;;;1999.90;999.90;;;10.60;99.90;;;;;;5073919;28;20421;-66
2021/05/23 00:38:19;;;;;;;1999.90;999.90;;;10.70;99.90;;;;;;5074124;28;20189;-64
2021/05/23 00:40:45;;;;;;;1999.90;999.90;;;10.70;99.90;;;;;;5074124;28;20174;-64
2021/05/23 00:43:14;;;;;;;1999.90;999.90;;;10.70;99.90;;;;;;5073915;28;20276;-64
2021/05/23 00:45:40;;;;;;;1999.90;999.90;;;10.70;99.90;;;;;;5073968;28;20158;-64
2021/05/23 00:48:06;;;;;;;1999.90;999.90;;;10.70;99.90;;;;;;5073804;28;20444;-64
2021/05/23 00:50:33;;;;;;;1999.90;999.90;;;10.70;99.90;;;;;;5073973;28;20402;-64
2021/05/23 00:53:01;;;;;;;1999.90;999.90;;;10.70;99.90;;;;;;5073911;28;20408;-64
2021/05/23 00:55:27;;;;;;;1999.90;999.90;;;10.70;99.90;;;;;;5073457;28;20911;-65
2021/05/23 00:57:52;;;;;;;1999.90;999.90;;;10.70;99.90;;;;;;5074034;28;20424;-66
2021/05/23 01:00:43;;;;;;;1999.90;999.90;;;10.80;99.90;;;;;;5074274;28;20722;-67
2021/05/23 01:03:27;;;;;;;1999.90;999.90;;;10.80;99.90;;;;;;5073854;28;20205;-65
2021/05/23 01:06:03;;;;;;;1999.90;999.90;;;10.90;99.90;;;;;;5073415;28;20878;-64
2021/05/23 01:08:29;;;;;;;1999.90;999.90;;;10.80;99.90;;;;;;5073451;28;20970;-64
2021/05/23 01:11:05;;;;;;;1999.90;999.90;;;10.80;99.90;;;;;;5073900;28;20486;-64
2021/05/23 01:13:51;;;;;;;1999.90;999.90;;;10.80;99.90;;;;;;5073689;28;20927;-65
2021/05/23 01:16:17;;;;;;;1999.90;999.90;;;10.70;99.90;;;;;;5073119;28;20392;-64
2021/05/23 01:18:49;;;;;;;1999.90;999.90;;;10.70;99.90;;;;;;5073591;28;20431;-64
2021/05/23 01:21:16;;;;;;;1999.90;999.90;;;10.70;99.90;;;;;;5073411;28;20254;-64
2021/05/23 01:23:54;;;;;;;1999.90;999.90;;;10.70;99.90;;;;;;5073272;28;20543;-65
2021/05/23 01:26:22;;;;;;;1999.90;999.90;;;10.60;99.90;;;;;;5072895;28;20455;-65
2021/05/23 01:28:59;;;;;;;1999.90;999.90;;;10.60;99.90;;;;;;5073065;28;20925;-65
2021/05/23 01:31:28;;;;;;;1999.90;999.90;;;10.60;99.90;;;;;;5073136;28;20495;-64
2021/05/23 01:33:55;;;;;;;1999.90;999.90;;;10.60;99.90;;;;;;5073407;28;20432;-65
2021/05/23 01:36:23;;;;;;;1999.90;999.90;;;10.60;99.90;;;;;;5073279;28;20408;-66
2021/05/23 01:38:50;;;;;;;1999.90;999.90;;;10.70;99.90;;;;;;5073376;28;20456;-65
2021/05/23 01:41:16;;;;;;;1999.90;999.90;;;10.70;99.90;;;;;;5073562;28;20486;-66
2021/05/23 01:43:42;;;;;;;1999.90;999.90;;;10.70;99.90;;;;;;5073040;28;20543;-66
2021/05/23 01:46:08;;;;;;;1999.90;999.90;;;10.70;99.90;;;;;;5072574;28;20404;-65
2021/05/23 01:48:36;;;;;;;1999.90;999.90;;;10.80;99.90;;;;;;5072630;28;20452;-66
2021/05/23 01:51:02;;;;;;;1999.90;999.90;;;10.70;99.90;;;;;;5072814;28;20394;-65
2021/05/23 01:53:27;;;;;;;1999.90;999.90;;;10.70;99.90;;;;;;5072641;28;20825;-65
2021/05/23 01:55:53;;;;;;;1999.90;999.90;;;10.70;99.90;;;;;;5072436;28;20668;-65
2021/05/23 01:58:19;;;;;;;1999.90;999.90;;;10.70;99.90;;;;;;5072435;28;20217;-64
2021/05/23 02:00:47;;;;;;;1999.90;999.90;;;10.70;99.90;;;;;;5072592;28;20248;-65
2021/05/23 02:03:14;;;;;;;1999.90;999.90;;;10.60;99.90;;;;;;5072490;28;20458;-64
2021/05/23 02:05:43;;;;;;;1999.90;999.90;;;10.60;99.90;;;;;;5072057;28;20401;-66
2021/05/23 02:08:10;;;;;;;1999.90;999.90;;;10.40;99.90;;;;;;5071931;28;20432;-65
2021/05/23 02:10:36;;;;;;;1999.90;999.90;;;10.20;99.90;;;;;;5072648;28;20772;-66
2021/05/23 02:13:03;;;;;;;1999.90;999.90;;;10.10;99.90;;;;;;5072343;28;20412;-65
2021/05/23 02:15:29;;;;;;;1999.90;999.90;;;10.00;99.90;;;;;;5072140;28;20208;-64
2021/05/23 02:17:55;;;;;;;1999.90;999.90;;;10.00;99.90;;;;;;5072220;28;20434;-65
2021/05/23 02:20:24;;;;;;;1999.90;999.90;;;10.00;99.90;;;;;;5072180;28;20461;-65
2021/05/23 02:22:50;;;;;;;1999.90;999.90;;;10.00;99.90;;;;;;5072000;28;20451;-64
2021/05/23 02:25:18;;;;;;;1999.90;999.90;;;10.00;99.90;;;;;;5071871;28;20400;-64
2021/05/23 02:27:49;;;;;;;1999.90;999.90;;;10.00;99.90;;;;;;5072022;28;20965;-65
2021/05/23 02:30:20;;;;;;;1999.90;999.90;;;10.00;99.90;;;;;;5072009;28;20495;-65
2021/05/23 02:32:46;;;;;;;1999.90;999.90;;;10.00;99.90;;;;;;5072147;28;20802;-64
2021/05/23 02:35:14;;;;;;;1999.90;999.90;;;9.90;99.90;;;;;;5071738;28;20408;-64
2021/05/23 02:37:40;;;;;;;1999.90;999.90;;;9.90;99.90;;;;;;5072156;28;20430;-63
2021/05/23 02:40:12;;;;;;;1999.90;999.90;;;9.90;99.90;;;;;;5072003;28;20776;-65
2021/05/23 02:42:38;;;;;;;1999.90;999.90;;;9.80;99.90;;;;;;5071867;28;20486;-65
2021/05/23 02:45:06;;;;;;;1999.90;999.90;;;9.80;99.90;;;;;;5072011;28;20399;-63
2021/05/23 02:47:31;;;;;;;1999.90;999.90;;;9.80;99.90;;;;;;5071603;28;20399;-63
2021/05/23 02:49:57;;;;;;;1999.90;999.90;;;9.80;99.90;;;;;;5071906;28;20909;-63
2021/05/23 02:52:23;;;;;;;1999.90;999.90;;;9.70;99.90;;;;;;5071925;28;20184;-63
2021/05/23 02:54:49;;;;;;;1999.90;999.90;;;9.80;99.90;;;;;;5071603;28;20480;-63
2021/05/23 02:57:15;;;;;;;1999.90;999.90;;;9.80;99.90;;;;;;5071943;28;20172;-63
2021/05/23 02:59:41;;;;;;;1999.90;999.90;;;9.80;99.90;;;;;;5071790;28;20449;-64
2021/05/23 03:02:07;;;;;;;1999.90;999.90;;;9.70;99.90;;;;;;5071717;28;21029;-64
2021/05/23 03:04:33;;;;;;;1999.90;999.90;;;9.70;99.90;;;;;;5071681;28;20401;-63
2021/05/23 03:06:59;;;;;;;1999.90;999.90;;;9.60;99.90;;;;;;5071538;28;20212;-64
2021/05/23 03:09:25;;;;;;;1999.90;999.90;;;9.60;99.90;;;;;;5071663;28;20200;-63
2021/05/23 03:11:50;;;;;;;1999.90;999.90;;;9.60;99.90;;;;;;5071750;28;20402;-64
2021/05/23 03:14:16;;;;;;;1999.90;999.90;;;9.60;99.90;;;;;;5071669;28;20807;-62
2021/05/23 03:16:41;;;;;;;1999.90;999.90;;;9.60;99.90;;;;;;5071373;28;20170;-62
2021/05/23 03:19:08;;;;;;;1999.90;999.90;;;9.60;99.90;;;;;;5073278;28;20670;-62
2021/05/23 03:21:35;;;;;;;1999.90;999.90;;;9.60;99.90;;;;;;5075708;28;20208;-62
2021/05/23 03:24:01;;;;;;;1999.90;999.90;;;9.60;99.90;;;;;;5075505;28;20394;-64
2021/05/23 03:26:26;;;;;;;1999.90;999.90;;;9.60;99.90;;;;;;5075156;28;20564;-64
2021/05/23 03:28:52;;;;;;;1999.90;999.90;;;9.60;99.90;;;;;;5075355;28;20466;-63
2021/05/23 03:31:18;;;;;;;1999.90;999.90;;;9.60;99.90;;;;;;5076038;28;20186;-66
2021/05/23 03:33:43;;;;;;;1999.90;999.90;;;9.60;99.90;;;;;;5076301;28;20177;-66
2021/05/23 03:36:09;;;;;;;1999.90;999.90;;;9.60;99.90;;;;;;5075730;28;20165;-64
2021/05/23 03:38:35;;;;;;;1999.90;999.90;;;9.60;99.90;;;;;;5075693;28;20182;-64
2021/05/23 03:41:00;;;;;;;1999.90;999.90;;;9.70;99.90;;;;;;5076064;28;20246;-66
2021/05/23 03:43:26;;;;;;;1999.90;999.90;;;9.60;99.90;;;;;;5075717;28;20208;-66
2021/05/23 03:45:51;;;;;;;1999.90;999.90;;;9.70;99.90;;;;;;5075289;28;20598;-66
2021/05/23 03:48:17;;;;;;;1999.90;999.90;;;9.70;99.90;;;;;;5075041;28;20200;-65
2021/05/23 03:50:43;;;;;;;1999.90;999.90;;;9.70;99.90;;;;;;5075630;28;20221;-65
2021/05/23 03:53:09;;;;;;;1999.90;999.90;;;9.70;99.90;;;;;;5075486;28;20629;-66
2021/05/23 03:55:35;;;;;;;1999.90;999.90;;;9.80;99.90;;;;;;5075332;28;20173;-66
2021/05/23 03:58:03;;;;;;;1999.90;999.90;;;9.70;99.90;;;;;;5075302;28;20440;-65
2021/05/23 04:00:28;;;;;;;1999.90;999.90;;;9.70;99.90;;;;;;5075444;28;20222;-65
2021/05/23 04:02:56;;;;;;;1999.90;999.90;;;9.70;99.90;;;;;;5075489;28;20450;-65
2021/05/23 04:05:23;;;;;;;1999.90;999.90;;;9.70;99.90;;;;;;5075041;28;20508;-66
2021/05/23 04:07:50;;;;;;;1999.90;999.90;;;9.70;99.90;;;;;;5075059;28;20862;-66
2021/05/23 04:10:19;;;;;;;1999.90;999.90;;;9.70;99.90;;;;;;5074790;28;20406;-65
2021/05/23 04:12:47;;;;;;;1999.90;999.90;;;9.60;99.90;;;;;;5075338;28;20498;-65
2021/05/23 04:15:15;;;;;;;1999.90;999.90;;;9.60;99.90;;;;;;5074463;28;20403;-65
2021/05/23 04:17:41;;;;;;;1999.90;999.90;;;9.50;99.90;;;;;;5074758;28;20405;-65
2021/05/23 04:20:12;;;;;;;1999.90;999.90;;;9.50;99.90;;;;;;5074683;28;20596;-65
2021/05/23 04:22:37;;;;;;;1999.90;999.90;;;9.50;99.90;;;;;;5074469;28;20445;-64
2021/05/23 04:25:06;;;;;;;1999.90;999.90;;;9.40;99.90;;;;;;5074153;28;20402;-65
2021/05/23 04:27:32;;;;;;;1999.90;999.90;;;9.40;99.90;;;;;;5074336;28;20177;-65
2021/05/23 04:29:58;;;;;;;1999.90;999.90;;;9.40;99.90;;;;;;5073821;28;20484;-65
2021/05/23 04:32:23;;;;;;;1999.90;999.90;;;9.40;99.90;;;;;;5074300;28;20179;-64
2021/05/23 04:34:49;;;;;;;1999.90;999.90;;;9.40;99.90;;;;;;5073966;28;20476;-65
2021/05/23 04:37:16;;;;;;;1999.90;999.90;;;9.40;99.90;;;;;;5074202;28;20198;-64
2021/05/23 04:39:42;;;;;;;1999.90;999.90;;;9.40;99.90;;;;;;5074001;28;20192;-65
2021/05/23 04:42:08;;;;;;;1999.90;999.90;;;9.40;99.90;;;;;;5074078;28;20457;-65
2021/05/23 04:44:34;;;;;;;1999.90;999.90;;;9.40;99.90;;;;;;5074062;28;20955;-66
2021/05/23 04:46:59;;;;;;;1999.90;999.90;;;9.40;99.90;;;;;;5073918;28;20357;-64
2021/05/23 04:49:25;;;;;;;1999.90;999.90;;;9.40;99.90;;;;;;5073891;28;20227;-64
2021/05/23 04:51:50;;;;;;;1999.90;999.90;;;9.40;99.90;;;;;;5073915;28;20314;-66
2021/05/23 04:54:16;;;;;;;1999.90;999.90;;;9.30;99.90;;;;;;5073902;28;20177;-65
2021/05/23 04:56:42;;;;;;;1999.90;999.90;;;9.30;99.90;;;;;;5073636;28;20171;-65
2021/05/23 04:59:08;;;;;;;1999.90;999.90;;;9.30;99.90;;;;;;5073795;28;20791;-65
2021/05/23 05:01:33;;;;;;;1999.90;999.90;;;9.20;99.90;;;;;;5073859;28;20180;-64
2021/05/23 05:03:59;;;;;;;1999.90;999.90;;;9.10;99.90;;;;;;5074138;28;20175;-65
2021/05/23 05:06:25;;;;;;;1999.90;999.90;;;9.10;99.90;;;;;;5073621;28;20167;-66
2021/05/23 05:08:50;;;;;;;1999.90;999.90;;;9.00;99.90;;;;;;5073914;28;20191;-65
2021/05/23 05:11:16;;;;;;;1999.90;999.90;;;9.00;99.90;;;;;;5073946;28;20172;-65
2021/05/23 05:13:41;;;;;;;1999.90;999.90;;;9.10;99.90;;;;;;5074273;28;20174;-64
2021/05/23 05:16:08;;;;;;;1999.90;999.90;;;9.10;99.90;;;;;;5074215;28;20523;-65
2021/05/23 05:18:35;;;;;;;1999.90;999.90;;;9.10;99.90;;;;;;5074583;28;20255;-64
2021/05/23 05:21:01;;;;;;;1999.90;999.90;;;9.10;99.90;;;;;;5074074;28;21042;-64
2021/05/23 05:23:26;;;;;;;1999.90;999.90;;;9.20;99.90;;;;;;5073351;28;20481;-65
2021/05/23 05:25:52;;;;;;;1999.90;999.90;;;9.30;99.90;;;;;;5073019;28;20938;-64
2021/05/23 05:28:18;;;;;;;1999.90;999.90;;;9.30;99.90;;;;;;5073118;28;20565;-64
2021/05/23 05:30:43;;;;;;;1999.90;999.90;;;9.40;99.90;;;;;;5073208;28;20179;-65
2021/05/23 05:33:09;;;;;;;1999.90;999.90;;;9.50;99.90;;;;;;5073231;28;20171;-65
2021/05/23 05:35:34;;;;;;;1999.90;999.90;;;9.50;99.90;;;;;;5072923;28;20179;-64
2021/05/23 05:38:01;;;;;;;1999.90;999.90;;;9.60;99.90;;;;;;5073042;28;20204;-64
2021/05/23 05:40:26;;;;;;;1999.90;999.90;;;9.60;99.90;;;;;;5072957;28;20259;-65
2021/05/23 05:42:52;;;;;;;1999.90;999.90;;;9.70;99.90;;;;;;5072155;28;20533;-64
2021/05/23 05:45:18;;;;;;;1999.90;999.90;;;9.80;99.90;;;;;;5072650;28;20179;-65
2021/05/23 05:47:43;;;;;;;1999.90;999.90;;;9.90;99.90;;;;;;5072793;28;20213;-65
2021/05/23 05:50:09;;;;;;;1999.90;999.90;;;9.90;99.90;;;;;;5072851;28;20541;-65
2021/05/23 05:52:35;;;;;;;1999.90;999.90;;;9.90;99.90;;;;;;5072795;28;20261;-65
2021/05/23 05:55:01;;;;;;;1999.90;999.90;;;9.90;99.90;;;;;;5072456;28;20446;-65
2021/05/23 05:57:26;;;;;;;1999.90;999.90;;;9.90;99.90;;;;;;5072553;28;20252;-64
2021/05/23 05:59:52;;;;;;;1999.90;999.90;;;10.00;99.90;;;;;;5072610;28;20627;-64
2021/05/23 06:02:18;;;;;;;1999.90;999.90;;;10.00;99.90;;;;;;5072511;28;20191;-66
2021/05/23 06:04:44;;;;;;;1999.90;999.90;;;10.00;99.90;;;;;;5072311;28;20225;-65
2021/05/23 06:07:09;;;;;;;1999.90;999.90;;;10.00;99.90;;;;;;5072346;28;20275;-64
2021/05/23 06:09:35;;;;;;;1999.90;999.90;;;10.00;99.90;;;;;;5072411;28;20435;-64
2021/05/23 06:12:01;;;;;;;1999.90;999.90;;;10.00;99.90;;;;;;5072393;28;20261;-65
2021/05/23 06:14:26;;;;;;;1999.90;999.90;;;9.90;99.90;;;;;;5072572;28;20171;-65
2021/05/23 06:16:52;;;;;;;1999.90;999.90;;;9.90;99.90;;;;;;5072227;28;20411;-64
2021/05/23 06:19:18;;;;;;;1999.90;999.90;;;10.00;99.90;;;;;;5072343;28;20201;-65
2021/05/23 06:21:44;;;;;;;1999.90;999.90;;;10.00;99.90;;;;;;5072231;28;20433;-66
2021/05/23 06:24:10;;;;;;;1999.90;999.90;;;10.00;99.90;;;;;;5072509;28;20253;-64
2021/05/23 06:26:36;;;;;;;1999.90;999.90;;;10.20;99.90;;;;;;5071915;28;20303;-65
2021/05/23 06:29:02;;;;;;;1999.90;999.90;;;10.30;99.90;;;;;;5072061;28;20963;-64
2021/05/23 06:31:27;;;;;;;1999.90;999.90;;;10.30;99.90;;;;;;5072234;28;20163;-64
2021/05/23 06:33:56;;;;;;;1999.90;999.90;;;10.40;99.90;;;;;;5072154;28;20173;-65
2021/05/23 06:36:22;;;;;;;1999.90;999.90;;;10.40;99.90;;;;;;5071828;28;20196;-65
2021/05/23 06:38:47;;;;;;;1999.90;999.90;;;10.40;99.90;;;;;;5071922;28;20435;-64
2021/05/23 06:41:13;;;;;;;1999.90;999.90;;;10.50;99.90;;;;;;5072000;28;20468;-64
2021/05/23 06:43:38;;;;;;;1999.90;999.90;;;10.50;99.90;;;;;;5071896;28;20614;-65
2021/05/23 06:46:04;;;;;;;1999.90;999.90;;;10.40;99.90;;;;;;5071773;28;20265;-64
2021/05/23 06:48:30;;;;;;;1999.90;999.90;;;10.40;99.90;;;;;;5071774;28;20209;-66
2021/05/23 06:50:55;;;;;;;1999.90;999.90;;;10.40;99.90;;;;;;5071913;28;20169;-64
2021/05/23 06:53:21;;;;;;;1999.90;999.90;;;10.40;99.90;;;;;;5071648;28;20663;-64
2021/05/23 06:55:47;;;;;;;1999.90;999.90;;;10.40;99.90;;;;;;5071566;28;20178;-65
2021/05/23 06:58:12;;;;;;;1999.90;999.90;;;10.40;99.90;;;;;;5071775;28;20189;-65
2021/05/23 07:00:38;;;;;;;1999.90;999.90;;;10.40;99.90;;;;;;5072034;28;20910;-65
2021/05/23 07:03:04;;;;;;;1999.90;999.90;;;10.50;99.90;;;;;;5071695;28;20280;-64
2021/05/23 07:05:30;;;;;;;1999.90;999.90;;;10.60;99.90;;;;;;5071482;28;20568;-64
2021/05/23 07:07:55;;;;;;;1999.90;999.90;;;10.70;99.90;;;;;;5071700;28;20269;-63
2021/05/23 07:10:21;;;;;;;1999.90;999.90;;;10.80;99.90;;;;;;5071698;28;20550;-64
2021/05/23 07:12:46;;;;;;;1999.90;999.90;;;10.90;99.90;;;;;;5071662;28;20206;-65
2021/05/23 07:15:12;;;;;;;1999.90;999.90;;;11.00;99.90;;;;;;5071428;28;20706;-64
2021/05/23 07:17:38;;;;;;;1999.90;999.90;;;11.00;99.90;;;;;;5071616;28;20176;-64
2021/05/23 07:20:05;;;;;;;1999.90;999.90;;;11.00;99.90;;;;;;5071528;28;20537;-64
2021/05/23 07:22:31;;;;;;;1999.90;999.90;;;10.80;99.90;;;;;;5071607;28;20255;-64
2021/05/23 07:24:57;;;;;;;1999.90;999.90;;;10.80;99.90;;;;;;5071285;28;20434;-65
2021/05/23 07:27:22;;;;;;;1999.90;999.90;;;10.90;99.90;;;;;;5071608;28;20735;-64
2021/05/23 07:29:48;;;;;;;1999.90;999.90;;;10.90;99.90;;;;;;5071497;28;20194;-64
2021/05/23 07:32:13;;;;;;;1999.90;999.90;;;11.00;99.90;;;;;;5071507;28;20169;-65
2021/05/23 07:34:39;;;;;;;1999.90;999.90;;;11.20;99.90;;;;;;5071409;28;20178;-66
2021/05/23 07:37:05;;;;;;;1999.90;999.90;;;11.20;99.90;;;;;;5071356;28;20210;-64
2021/05/23 07:39:30;;;;;;;1999.90;999.90;;;11.30;99.90;;;;;;5071361;28;20195;-64
2021/05/23 07:41:56;;;;;;;1999.90;999.90;;;11.20;99.90;;;;;;5071355;28;20262;-64
2021/05/23 07:44:21;;;;;;;1999.90;999.90;;;11.20;99.90;;;;;;5071572;28;20178;-66
2021/05/23 07:46:47;;;;;;;1999.90;999.90;;;11.20;99.90;;;;;;5071184;28;20689;-64
2021/05/23 07:49:15;;;;;;;1999.90;999.90;;;11.30;99.90;;;;;;5071171;28;20320;-64
2021/05/23 07:51:40;;;;;;;1999.90;999.90;;;11.40;99.90;;;;;;5071428;28;20186;-64
2021/05/23 07:54:06;;;;;;;1999.90;999.90;;;11.40;99.90;;;;;;5071212;28;20766;-65
2021/05/23 07:56:32;;;;;;;1999.90;999.90;;;11.40;99.90;;;;;;5071334;28;20380;-64
2021/05/23 07:58:57;;;;;;;1999.90;999.90;;;11.40;99.90;;;;;;5071221;28;20232;-65
2021/05/23 08:01:23;;;;;;;1999.90;999.90;;;11.50;99.90;;;;;;5071237;28;20707;-64
2021/05/23 08:03:48;;;;;;;1999.90;999.90;;;11.50;99.90;;;;;;5071136;28;20206;-65
2021/05/23 08:06:15;;;;;;;1999.90;999.90;;;11.50;99.90;;;;;;5074161;28;20167;-65
2021/05/23 08:08:41;;;;;;;1999.90;999.90;;;11.60;99.90;;;;;;5074700;28;20194;-65
2021/05/23 08:11:07;;;;;;;1999.90;999.90;;;11.60;99.90;;;;;;5074740;28;20541;-65
2021/05/23 08:13:32;;;;;;;1999.90;999.90;;;11.60;99.90;;;;;;5074730;28;20523;-66
2021/05/23 08:15:59;;;;;;;1999.90;999.90;;;11.70;99.90;;;;;;5074381;28;20176;-66
2021/05/23 08:18:29;;;;;;;1999.90;999.90;;;11.80;99.90;;;;;;5074525;28;20229;-64
2021/05/23 08:20:59;;;;;;;1999.90;999.90;;;11.90;99.90;;;;;;5074531;28;20412;-65
2021/05/23 08:23:26;;;;;;;1999.90;999.90;;;11.80;99.90;;;;;;5074603;28;20503;-65
2021/05/23 08:25:52;;;;;;;1999.90;999.90;;;11.80;99.90;;;;;;5074390;28;20811;-65
2021/05/23 08:28:19;;;;;;;1999.90;999.90;;;11.90;99.90;;;;;;5074285;28;20435;-66
2021/05/23 08:30:45;;;;;;;1999.90;999.90;;;11.90;99.90;;;;;;5074377;28;20428;-65
2021/05/23 08:33:12;;;;;;;1999.90;999.90;;;12.00;99.90;;;;;;5074224;28;20444;-66
2021/05/23 08:35:39;;;;;;;1999.90;999.90;;;12.10;99.90;;;;;;5073865;28;20412;-65
2021/05/23 08:38:06;;;;;;;1999.90;999.90;;;12.30;99.90;;;;;;5074146;28;20903;-65
2021/05/23 08:40:31;;;;;;;1999.90;999.90;;;12.50;99.90;;;;;;5074344;28;20467;-65
2021/05/23 08:42:57;;;;;;;1999.90;999.90;;;12.70;99.90;;;;;;5074033;28;20859;-66
2021/05/23 08:45:22;;;;;;;1999.90;999.90;;;13.00;99.90;;;;;;5073940;28;20183;-64
2021/05/23 08:47:50;;;;;;;1999.90;999.90;;;13.10;99.90;;;;;;5073916;28;20226;-64
2021/05/23 08:50:18;;;;;;;1999.90;999.90;;;13.10;99.90;;;;;;5073999;28;20179;-66
2021/05/23 08:52:44;;;;;;;1999.90;999.90;;;13.00;99.90;;;;;;5073991;28;20410;-65
2021/05/23 08:55:11;;;;;;;1999.90;999.90;;;13.40;99.90;;;;;;5073679;28;20412;-65
2021/05/23 08:57:36;;;;;;;1999.90;999.90;;;13.60;99.90;;;;;;5073914;28;20445;-64
2021/05/23 09:00:04;;;;;;;1999.90;999.90;;;13.80;99.90;;;;;;5074138;28;20434;-65
2021/05/23 09:02:30;;;;;;;1999.90;999.90;;;13.90;99.90;;;;;;5073672;28;20579;-65
2021/05/23 09:04:56;;;;;;;1999.90;999.90;;;13.90;99.90;;;;;;5073350;28;20425;-65
2021/05/23 09:07:21;;;;;;;1999.90;999.90;;;13.90;99.90;;;;;;5073626;28;20168;-66
2021/05/23 09:09:49;;;;;;;1999.90;999.90;;;13.70;99.90;;;;;;5073608;28;20188;-67
2021/05/23 09:12:17;;;;;;;1999.90;999.90;;;13.70;99.90;;;;;;5073624;28;20179;-66
2021/05/23 09:14:46;;;;;;;1999.90;999.90;;;13.60;99.90;;;;;;5073389;28;20788;-66
2021/05/23 09:17:24;;;;;;;1999.90;999.90;;;13.70;99.90;;;;;;5073169;28;20405;-66
2021/05/23 09:19:50;;;;;;;1999.90;999.90;;;13.70;99.90;;;;;;5073426;28;20466;-66
2021/05/23 09:22:20;;;;;;;1999.90;999.90;;;13.90;99.90;;;;;;5073402;28;20451;-66
2021/05/23 09:24:52;;;;;;;1999.90;999.90;;;13.80;99.90;;;;;;5073128;28;20466;-65
2021/05/23 09:27:19;;;;;;;1999.90;999.90;;;13.70;99.90;;;;;;5073258;28;20459;-66
2021/05/23 09:29:45;;;;;;;1999.90;999.90;;;13.70;99.90;;;;;;5073166;28;20428;-65
2021/05/23 09:32:19;;;;;;;1999.90;999.90;;;13.70;99.90;;;;;;5072977;28;20491;-66
2021/05/23 09:34:48;;;;;;;1999.90;999.90;;;13.70;99.90;;;;;;5072994;28;20412;-65
2021/05/23 09:37:15;;;;;;;1999.90;999.90;;;13.70;99.90;;;;;;5073014;28;20402;-64
2021/05/23 09:39:41;;;;;;;1999.90;999.90;;;13.70;99.90;;;;;;5073064;28;20949;-64
2021/05/23 09:42:11;;;;;;;1999.90;999.90;;;13.80;99.90;;;;;;5072817;28;20441;-66
2021/05/23 09:44:38;;;;;;;1999.90;999.90;;;13.70;99.90;;;;;;5069345;28;20539;-65
2021/05/23 09:47:10;;;;;;;1999.90;999.90;;;13.80;99.90;;;;;;5071044;28;20434;-64
2021/05/23 09:49:56;;;;;;;1999.90;999.90;;;13.80;99.90;;;;;;5071706;28;20449;-64
2021/05/23 09:52:36;;;;;;;1999.90;999.90;;;13.80;99.90;;;;;;5071446;28;20750;-64
2021/05/23 09:55:04;;;;;;;1999.90;999.90;;;14.10;99.90;;;;;;5071543;28;20413;-64
2021/05/23 09:57:30;;;;;;;1999.90;999.90;;;14.50;99.90;;;;;;5071810;28;20397;-64
2021/05/23 10:00:04;;;;;;;1999.90;999.90;;;14.50;99.90;;;;;;5071738;28;20434;-64
2021/05/23 10:02:30;;;;;;;1999.90;999.90;;;14.40;99.90;;;;;;5072011;28;20945;-64
2021/05/23 10:05:03;;;;;;;1999.90;999.90;;;14.30;99.90;;;;;;5071296;28;20405;-64
2021/05/23 10:07:33;;;;;;;1999.90;999.90;;;14.10;99.90;;;;;;5071142;28;20164;-64
2021/05/23 10:09:59;;;;;;;1999.90;999.90;;;13.90;99.90;;;;;;5071758;28;20398;-64
2021/05/23 10:12:25;;;;;;;1999.90;999.90;;;13.80;99.90;;;;;;5071185;28;20754;-65
2021/05/23 10:14:50;;;;;;;1999.90;999.90;;;13.60;99.90;;;;;;5070838;28;20630;-64
2021/05/23 10:17:17;;;;;;;1999.90;999.90;;;13.80;99.90;;;;;;5071211;28;20415;-66
2021/05/23 10:19:46;;;;;;;1999.90;999.90;;;13.90;99.90;;;;;;5049686;28;20203;-64
2021/05/23 10:22:12;;;;;;;1999.90;999.90;;;13.90;99.90;;;;;;5049748;28;20454;-63
2021/05/23 10:24:53;;;;;;;1999.90;999.90;;;13.80;99.90;;;;;;5050257;28;20402;-66
2021/05/23 10:27:25;;;;;;;1999.90;999.90;;;13.90;99.90;;;;;;5049671;28;20408;-63
2021/05/23 10:29:53;;;;;;;1999.90;999.90;;;13.90;99.90;;;;;;5049260;28;20422;-65
2021/05/23 10:32:29;;;;;;;1999.90;999.90;;;14.00;99.90;;;;;;5050183;28;20405;-63
2021/05/23 10:34:56;;;;;;;1999.90;999.90;;;13.90;99.90;;;;;;5049359;28;20409;-64
2021/05/23 10:37:29;;;;;;;1999.90;999.90;;;13.80;99.90;;;;;;5050321;28;21285;-65
2021/05/23 10:39:57;;;;;;;1999.90;999.90;;;13.70;99.90;;;;;;5050434;28;20413;-66
2021/05/23 10:42:30;;;;;;;1999.90;999.90;;;13.60;99.90;;;;;;5049714;28;20477;-65
2021/05/23 10:44:57;;;;;;;1999.90;999.90;;;13.60;99.90;;;;;;5049440;28;20399;-64
2021/05/23 10:47:29;;;;;;;1999.90;999.90;;;13.70;99.90;;;;;;5050026;28;20901;-64
2021/05/23 10:50:04;;;;;;;1999.90;999.90;;;13.90;99.90;;;;;;5049638;28;20437;-65
2021/05/23 10:52:32;;;;;;;1999.90;999.90;;;14.30;99.90;;;;;;5050193;28;20419;-64
2021/05/23 10:55:07;;;;;;;1999.90;999.90;;;14.60;99.90;;;;;;5049637;28;20440;-64
2021/05/23 10:57:46;;;;;;;1999.90;999.90;;;14.70;99.90;;;;;;5049302;28;20402;-66
2021/05/23 11:00:42;;;;;;;1999.90;999.90;;;14.70;99.90;;;;;;5050142;28;20398;-65
2021/05/23 11:03:18;;;;;;;1999.90;999.90;;;14.70;99.90;;;;;;5047795;28;20461;-66
2021/05/23 11:05:44;;;;;;;1999.90;999.90;;;14.40;99.90;;;;;;5049205;28;20410;-66
2021/05/23 11:08:12;;;;;;;1999.90;999.90;;;14.50;99.90;;;;;;5050172;28;20503;-66
2021/05/23 11:10:43;;;;;;;1999.90;999.90;;;14.60;99.90;;;;;;5050144;28;20403;-67
2021/05/23 11:13:12;;;;;;;1999.90;999.90;;;14.70;99.90;;;;;;5049700;28;20504;-65
2021/05/23 11:15:46;;;;;;;1999.90;999.90;;;14.70;99.90;;;;;;5049472;28;20779;-65
2021/05/23 11:18:22;;;;;;;1999.90;999.90;;;14.70;99.90;;;;;;5049453;28;20438;-65
2021/05/23 11:20:58;;;;;;;1999.90;999.90;;;14.80;99.90;;;;;;5049576;28;20451;-64
2021/05/23 11:23:24;;;;;;;1999.90;999.90;;;14.70;99.90;;;;;;5050091;28;20450;-64
2021/05/23 11:25:50;;;;;;;1999.90;999.90;;;14.50;99.90;;;;;;5049522;28;20409;-66
2021/05/23 11:28:21;;;;;;;1999.90;999.90;;;14.70;99.90;;;;;;5049560;28;20433;-64
2021/05/23 11:30:49;;;;;;;1999.90;999.90;;;14.90;99.90;;;;;;5049884;28;20175;-65
2021/05/23 11:33:15;;;;;;;1999.90;999.90;;;14.80;99.90;;;;;;5050114;28;20488;-65
2021/05/23 11:35:42;;;;;;;1999.90;999.90;;;14.80;99.90;;;;;;5049297;28;20495;-64
2021/05/23 11:38:09;;;;;;;1999.90;999.90;;;14.90;99.90;;;;;;5049429;28;20448;-66
2021/05/23 11:40:36;;;;;;;1999.90;999.90;;;14.80;99.90;;;;;;5052239;28;20570;-65
2021/05/23 11:43:28;;;;;;;1999.90;999.90;;;14.90;99.90;;;;;;5053087;28;20445;-66
2021/05/23 11:46:02;;;;;;;1999.90;999.90;;;14.80;99.90;;;;;;5051098;28;20500;-65
2021/05/23 11:48:33;;;;;;;1999.90;999.90;;;15.10;99.90;;;;;;5053611;28;20450;-65
2021/05/23 11:51:00;;;;;;;1999.90;999.90;;;15.50;99.90;;;;;;5052826;28;20991;-66
2021/05/23 11:53:38;;;;;;;1999.90;999.90;;;15.60;99.90;;;;;;5053229;28;20406;-65
2021/05/23 11:56:05;;;;;;;1999.90;999.90;;;15.70;99.90;;;;;;5052629;28;20413;-67
2021/05/23 11:58:31;;;;;;;1999.90;999.90;;;15.60;99.90;;;;;;5052548;28;20424;-65
2021/05/23 12:01:17;;;;;;;1999.90;999.90;;;15.50;99.90;;;;;;5053144;28;20425;-65
2021/05/23 12:04:00;;;;;;;1999.90;999.90;;;15.40;99.90;;;;;;5052940;28;20235;-65